createdAt,value
2022-08-26T00:01:46.699Z,1.77
2022-08-26T00:04:13.769Z,1.60
2022-08-26T00:06:42.752Z,1.50
2022-08-26T00:09:16.730Z,1.58
2022-08-26T00:11:45.364Z,1.60
2022-08-26T00:14:13.958Z,1.27
2022-08-26T00:16:47.606Z,1.65
2022-08-26T00:19:18.265Z,1.42
2022-08-26T00:21:46.326Z,1.45
2022-08-26T00:24:15.952Z,1.48
2022-08-26T00:26:43.015Z,1.45
2022-08-26T00:29:10.495Z,1.50
2022-08-26T00:31:37.725Z,2.00
2022-08-26T00:34:05.787Z,1.25
2022-08-26T00:36:32.678Z,1.80
2022-08-26T00:38:59.457Z,1.85
2022-08-26T00:41:26.443Z,1.90
2022-08-26T00:43:54.454Z,2.05
2022-08-26T00:46:29.611Z,1.60
2022-08-26T00:49:11.671Z,1.85
2022-08-26T00:51:53.521Z,1.77
2022-08-26T00:54:23.153Z,1.25
2022-08-26T00:56:57.615Z,1.35
2022-08-26T00:59:28.949Z,1.30
2022-08-26T01:02:00.464Z,1.75
2022-08-26T01:04:31.466Z,1.35
2022-08-26T01:06:59.089Z,1.60
2022-08-26T01:09:26.993Z,1.60
2022-08-26T01:11:56.371Z,1.70
2022-08-26T01:14:27.508Z,1.48
2022-08-26T01:16:54.612Z,1.42
2022-08-26T01:19:33.358Z,1.65
2022-08-26T01:22:08.698Z,1.10
2022-08-26T01:24:38.050Z,1.75
2022-08-26T01:27:08.744Z,1.70
2022-08-26T01:29:39.370Z,1.52
2022-08-26T01:32:08.922Z,1.88
2022-08-26T01:34:38.549Z,1.75
2022-08-26T01:37:27.284Z,1.55
2022-08-26T01:39:56.124Z,2.15
2022-08-26T01:42:26.734Z,1.98
2022-08-26T01:45:01.238Z,2.10
2022-08-26T01:47:30.976Z,2.17
2022-08-26T01:50:01.677Z,1.80
2022-08-26T01:52:35.548Z,1.90
2022-08-26T01:55:02.639Z,2.22
2022-08-26T01:57:29.622Z,2.05
2022-08-26T02:00:16.235Z,2.25
2022-08-26T02:02:46.532Z,1.98
2022-08-26T02:05:17.600Z,1.88
2022-08-26T02:07:45.215Z,1.88
2022-08-26T02:10:15.059Z,2.08
2022-08-26T02:12:42.318Z,2.40
2022-08-26T02:15:12.943Z,1.92
2022-08-26T02:17:46.106Z,2.22
2022-08-26T02:20:18.011Z,2.00
2022-08-26T02:22:47.037Z,1.67
2022-08-26T02:25:21.006Z,2.42
2022-08-26T02:27:48.067Z,2.50
2022-08-26T02:30:18.301Z,1.77
2022-08-26T02:32:45.240Z,1.98
2022-08-26T02:35:20.238Z,2.40
2022-08-26T02:37:49.411Z,1.75
2022-08-26T02:40:19.673Z,2.05
2022-08-26T02:42:49.193Z,2.22
2022-08-26T02:45:16.755Z,1.65
2022-08-26T02:47:51.710Z,1.83
2022-08-26T02:50:19.965Z,2.33
2022-08-26T02:52:49.735Z,2.30
2022-08-26T02:55:17.250Z,2.25
2022-08-26T02:57:44.248Z,2.22
2022-08-26T03:00:14.968Z,2.70
2022-08-26T03:02:42.278Z,2.30
2022-08-26T03:05:09.916Z,2.17
2022-08-26T03:07:37.197Z,1.85
2022-08-26T03:10:08.540Z,1.60
2022-08-26T03:12:36.357Z,2.10
2022-08-26T03:15:13.181Z,2.17
2022-08-26T03:17:46.786Z,1.88
2022-08-26T03:20:15.576Z,2.00
2022-08-26T03:22:44.601Z,2.28
2022-08-26T03:25:14.526Z,2.42
2022-08-26T03:27:41.780Z,2.13
2022-08-26T03:30:30.978Z,2.10
2022-08-26T03:32:57.838Z,2.45
2022-08-26T03:35:26.227Z,2.17
2022-08-26T03:37:53.572Z,2.13
2022-08-26T03:40:21.042Z,2.47
2022-08-26T03:42:49.312Z,2.85
2022-08-26T03:45:17.290Z,4.00
2022-08-26T03:47:44.727Z,3.17
2022-08-26T03:50:15.269Z,3.75
2022-08-26T03:52:44.303Z,3.65
2022-08-26T03:55:11.348Z,2.05
2022-08-26T03:57:37.988Z,2.88
2022-08-26T04:00:07.046Z,2.60
2022-08-26T04:02:33.781Z,2.95
2022-08-26T04:05:00.472Z,6.65
2022-08-26T04:07:27.186Z,5.57
2022-08-26T04:09:58.366Z,4.03
2022-08-26T04:12:26.167Z,3.15
2022-08-26T04:14:53.871Z,3.08
2022-08-26T04:17:24.819Z,3.00
2022-08-26T04:19:55.027Z,3.20
2022-08-26T04:22:24.875Z,3.78
2022-08-26T04:24:52.272Z,3.22
2022-08-26T04:27:19.194Z,4.03
2022-08-26T04:29:47.703Z,3.10
2022-08-26T04:32:15.763Z,2.90
2022-08-26T04:34:43.754Z,3.83
2022-08-26T04:37:12.107Z,4.05
2022-08-26T04:39:39.238Z,4.40
2022-08-26T04:42:06.442Z,4.10
2022-08-26T04:44:35.992Z,3.78
2022-08-26T04:47:03.119Z,3.75
2022-08-26T04:49:35.475Z,3.30
2022-08-26T04:52:03.296Z,4.05
2022-08-26T04:54:31.687Z,4.00
2022-08-26T04:56:59.370Z,4.80
2022-08-26T04:59:26.307Z,4.05
2022-08-26T05:01:57.476Z,4.47
2022-08-26T05:04:43.754Z,3.88
2022-08-26T05:07:11.295Z,4.22
2022-08-26T05:09:40.506Z,5.40
2022-08-26T05:12:09.786Z,4.13
2022-08-26T05:14:37.109Z,4.47
2022-08-26T05:17:04.132Z,3.50
2022-08-26T05:19:31.620Z,5.53
2022-08-26T05:21:59.531Z,2.75
2022-08-26T05:24:26.436Z,4.80
2022-08-26T05:26:54.484Z,5.47
2022-08-26T05:29:23.745Z,4.25
2022-08-26T05:31:52.673Z,4.45
2022-08-26T05:34:23.419Z,5.07
2022-08-26T05:36:52.743Z,3.45
2022-08-26T05:39:20.092Z,4.00
2022-08-26T05:41:47.701Z,3.55
2022-08-26T05:44:17.459Z,3.67
2022-08-26T05:46:44.903Z,4.40
2022-08-26T05:49:14.023Z,4.03
2022-08-26T05:51:45.333Z,4.55
2022-08-26T05:54:13.546Z,4.25
2022-08-26T05:56:40.949Z,4.38
2022-08-26T05:59:14.732Z,3.13
2022-08-26T06:01:42.897Z,4.05
2022-08-26T06:04:10.407Z,3.65
2022-08-26T06:06:41.282Z,4.15
2022-08-26T06:09:11.327Z,3.20
2022-08-26T06:11:39.157Z,3.88
2022-08-26T06:14:08.063Z,3.75
2022-08-26T06:16:38.696Z,4.32
2022-08-26T06:19:10.831Z,4.20
2022-08-26T06:21:41.330Z,4.38
2022-08-26T06:24:32.258Z,3.17
2022-08-26T06:27:05.683Z,2.67
2022-08-26T06:29:36.046Z,3.90
2022-08-26T06:32:04.437Z,3.63
2022-08-26T06:34:31.298Z,3.53
2022-08-26T06:37:01.417Z,3.67
2022-08-26T06:39:30.900Z,3.92
2022-08-26T06:41:59.026Z,2.83
2022-08-26T06:44:26.216Z,2.85
2022-08-26T06:46:53.551Z,3.53
2022-08-26T06:49:26.676Z,3.35
2022-08-26T06:51:58.234Z,3.22
2022-08-26T06:54:25.885Z,2.72
2022-08-26T06:56:52.557Z,3.53
2022-08-26T06:59:19.239Z,4.72
2022-08-26T07:01:46.688Z,2.38
2022-08-26T07:04:20.230Z,2.45
2022-08-26T07:06:52.656Z,2.47
2022-08-26T07:09:24.843Z,2.90
2022-08-26T07:11:53.308Z,3.28
2022-08-26T07:14:21.905Z,3.63
2022-08-26T07:16:52.483Z,3.03
2022-08-26T07:19:28.988Z,3.28
2022-08-26T07:21:59.350Z,3.38
2022-08-26T07:24:29.172Z,2.90
2022-08-26T07:27:02.800Z,3.17
2022-08-26T07:29:29.934Z,4.60
2022-08-26T07:31:57.225Z,2.63
2022-08-26T07:34:25.112Z,3.28
2022-08-26T07:36:53.849Z,2.85
2022-08-26T07:39:23.287Z,3.17
2022-08-26T07:41:51.096Z,2.72
2022-08-26T07:44:18.382Z,2.80
2022-08-26T07:46:52.258Z,3.58
2022-08-26T07:49:23.791Z,2.50
2022-08-26T07:51:51.478Z,3.08
2022-08-26T07:54:18.813Z,2.80
2022-08-26T07:56:46.225Z,3.08
2022-08-26T07:59:14.007Z,2.88
2022-08-26T08:01:44.770Z,3.10
2022-08-26T08:04:17.449Z,2.80
2022-08-26T08:06:45.560Z,3.08
2022-08-26T08:09:16.131Z,3.17
2022-08-26T08:11:45.089Z,3.00
2022-08-26T08:14:13.180Z,2.47
2022-08-26T08:16:45.910Z,2.58
2022-08-26T08:19:14.605Z,2.78
2022-08-26T08:21:42.200Z,2.58
2022-08-26T08:24:11.559Z,2.53
2022-08-26T08:26:38.915Z,3.15
2022-08-26T08:29:06.131Z,2.90
2022-08-26T08:34:21.443Z,2.13
2022-08-26T08:36:48.502Z,2.33
2022-08-26T08:39:17.176Z,2.63
2022-08-26T08:42:19.073Z,2.45
2022-08-26T08:44:52.928Z,2.65
2022-08-26T08:47:32.723Z,2.47
2022-08-26T08:50:17.937Z,2.60
2022-08-26T08:53:09.061Z,2.28
2022-08-26T08:56:00.912Z,2.63
2022-08-26T08:58:44.096Z,2.58
2022-08-26T09:01:25.945Z,2.63
2022-08-26T09:03:58.395Z,2.67
2022-08-26T09:06:28.324Z,2.83
2022-08-26T09:08:56.631Z,2.33
2022-08-26T09:11:23.416Z,2.40
2022-08-26T09:13:53.630Z,3.08
2022-08-26T09:16:56.686Z,1.80
2022-08-26T09:19:34.168Z,2.30
2022-08-26T09:22:04.687Z,2.28
2022-08-26T09:24:41.639Z,2.40
2022-08-26T09:27:08.833Z,2.70
2022-08-26T09:29:44.716Z,2.25
2022-08-26T09:32:27.484Z,1.40
2022-08-26T09:35:01.506Z,1.67
2022-08-26T09:37:36.971Z,1.33
2022-08-26T09:40:16.340Z,2.22
2022-08-26T09:42:43.248Z,1.95
2022-08-26T09:45:12.030Z,1.58
2022-08-26T09:47:40.499Z,2.42
2022-08-26T09:50:31.490Z,2.70
2022-08-26T09:53:16.112Z,2.05
2022-08-26T09:55:46.087Z,2.05
2022-08-26T09:58:15.564Z,2.17
2022-08-26T10:00:55.933Z,2.17
2022-08-26T10:03:28.008Z,2.00
2022-08-26T10:06:17.711Z,2.00
2022-08-26T10:08:51.515Z,2.30
2022-08-26T10:11:43.141Z,2.50
2022-08-26T10:14:21.720Z,2.50
2022-08-26T10:17:03.709Z,1.90
2022-08-26T10:19:56.527Z,2.35
2022-08-26T10:22:40.249Z,1.70
2022-08-26T10:25:12.005Z,2.58
2022-08-26T10:28:03.745Z,2.35
2022-08-26T10:31:00.841Z,2.50
2022-08-26T10:33:27.629Z,2.70
2022-08-26T10:36:05.507Z,2.60
2022-08-26T10:38:37.607Z,3.25
2022-08-26T10:41:20.666Z,2.47
2022-08-26T10:43:59.871Z,2.65
2022-08-26T10:46:36.327Z,2.10
2022-08-26T10:49:10.466Z,2.40
2022-08-26T10:51:44.208Z,2.47
2022-08-26T10:54:29.782Z,2.97
2022-08-26T10:57:24.792Z,2.15
2022-08-26T11:00:28.811Z,2.35
2022-08-26T11:03:22.012Z,2.65
2022-08-26T11:06:15.156Z,2.90
2022-08-26T11:08:50.408Z,2.45
2022-08-26T11:11:42.192Z,1.83
2022-08-26T11:14:34.230Z,1.95
2022-08-26T11:17:13.105Z,2.53
2022-08-26T11:20:00.348Z,1.75
2022-08-26T11:22:28.761Z,1.88
2022-08-26T11:24:55.577Z,2.40
2022-08-26T11:27:26.045Z,3.00
2022-08-26T11:30:01.984Z,2.50
2022-08-26T11:32:34.814Z,2.72
2022-08-26T11:35:09.340Z,2.55
2022-08-26T11:37:41.517Z,2.72
2022-08-26T11:40:12.031Z,3.00
2022-08-26T11:42:43.352Z,3.22
2022-08-26T11:45:41.125Z,2.55
2022-08-26T11:48:20.964Z,2.70
2022-08-26T11:50:58.183Z,2.70
2022-08-26T11:53:26.143Z,1.80
2022-08-26T11:55:55.170Z,1.75
2022-08-26T11:58:24.362Z,1.10
2022-08-26T12:00:59.345Z,1.30
2022-08-26T12:03:32.039Z,1.67
2022-08-26T12:05:59.364Z,1.40
2022-08-26T12:08:29.115Z,1.23
2022-08-26T12:11:09.744Z,1.23
2022-08-26T12:13:39.303Z,1.58
2022-08-26T12:16:06.495Z,1.30
2022-08-26T12:18:37.362Z,1.40
2022-08-26T12:21:19.141Z,1.30
2022-08-26T12:23:47.786Z,1.23
2022-08-26T12:26:23.921Z,0.98
2022-08-26T12:28:53.602Z,0.93
2022-08-26T12:31:27.968Z,1.35
2022-08-26T12:33:59.028Z,1.52
2022-08-26T12:36:56.837Z,1.35
2022-08-26T12:39:35.735Z,1.45
2022-08-26T12:42:04.310Z,1.10
2022-08-26T12:44:36.703Z,0.90
2022-08-26T12:47:39.065Z,0.90
2022-08-26T12:50:25.658Z,1.20
2022-08-26T12:53:10.409Z,0.80
2022-08-26T12:55:39.661Z,0.95
2022-08-26T12:58:15.661Z,0.75
2022-08-26T13:00:43.978Z,1.00
2022-08-26T13:03:46.336Z,0.70
2022-08-26T13:06:42.242Z,1.08
2022-08-26T13:09:10.016Z,1.08
2022-08-26T13:11:39.731Z,1.15
2022-08-26T13:14:09.111Z,0.90
2022-08-26T13:16:39.390Z,0.90
2022-08-26T13:19:10.371Z,0.70
2022-08-26T13:21:52.964Z,0.80
2022-08-26T13:24:26.293Z,0.80
2022-08-26T13:26:54.422Z,0.82
2022-08-26T13:29:21.111Z,0.88
2022-08-26T13:31:48.214Z,0.95
2022-08-26T13:34:20.373Z,1.05
2022-08-26T13:36:52.885Z,0.80
2022-08-26T13:39:20.794Z,0.73
2022-08-26T13:41:47.747Z,0.85
2022-08-26T13:44:16.073Z,0.70
2022-08-26T13:46:43.200Z,0.90
2022-08-26T13:49:11.223Z,0.90
2022-08-26T13:51:38.364Z,0.70
2022-08-26T13:54:06.046Z,0.90
2022-08-26T13:56:33.911Z,0.90
2022-08-26T13:59:04.083Z,0.60
2022-08-26T14:01:31.985Z,0.60
2022-08-26T14:03:58.894Z,0.60
2022-08-26T14:06:25.789Z,0.60
2022-08-26T14:08:52.489Z,0.70
2022-08-26T14:11:20.286Z,0.70
2022-08-26T14:13:47.028Z,0.90
2022-08-26T14:16:25.549Z,0.85
2022-08-26T14:18:53.327Z,0.80
2022-08-26T14:21:20.620Z,0.60
2022-08-26T14:23:47.632Z,0.77
2022-08-26T14:26:27.838Z,0.70
2022-08-26T14:28:56.753Z,0.90
2022-08-26T14:31:24.438Z,0.80
2022-08-26T14:33:51.427Z,0.70
2022-08-26T14:36:32.259Z,0.60
2022-08-26T14:39:06.263Z,0.55
2022-08-26T14:41:35.490Z,0.68
2022-08-26T14:44:07.199Z,0.63
2022-08-26T14:46:46.902Z,0.82
2022-08-26T14:49:14.724Z,1.02
2022-08-26T14:51:41.481Z,0.68
2022-08-26T14:54:12.621Z,0.93
2022-08-26T14:56:52.292Z,0.63
2022-08-26T14:59:22.047Z,1.10
2022-08-26T15:01:49.373Z,0.80
2022-08-26T15:04:16.376Z,0.90
2022-08-26T15:06:43.452Z,0.80
2022-08-26T15:09:12.048Z,0.90
2022-08-26T15:11:38.800Z,0.80
2022-08-26T15:14:06.641Z,0.70
2022-08-26T15:16:34.379Z,0.60
2022-08-26T15:19:01.465Z,0.60
2022-08-26T15:21:28.725Z,0.63
2022-08-26T15:23:55.467Z,0.65
2022-08-26T15:26:23.154Z,0.80
2022-08-26T15:28:51.062Z,0.57
2022-08-26T15:31:19.114Z,0.70
2022-08-26T15:33:47.531Z,0.80
2022-08-26T15:36:14.540Z,0.60
2022-08-26T15:38:42.561Z,0.60
2022-08-26T15:41:10.332Z,0.90
2022-08-26T15:43:38.275Z,0.80
2022-08-26T15:46:10.447Z,0.80
2022-08-26T15:48:37.934Z,0.88
2022-08-26T15:51:06.312Z,0.70
2022-08-26T15:53:34.730Z,0.68
2022-08-26T15:56:02.740Z,0.90
2022-08-26T15:58:30.109Z,0.60
2022-08-26T16:00:57.412Z,0.60
2022-08-26T16:03:24.108Z,0.88
2022-08-26T16:05:50.977Z,0.60
2022-08-26T16:08:17.990Z,0.88
2022-08-26T16:10:50.535Z,1.10
2022-08-26T16:13:20.029Z,0.90
2022-08-26T16:15:48.010Z,0.82
2022-08-26T16:18:15.950Z,0.80
2022-08-26T16:21:05.021Z,0.70
2022-08-26T16:23:38.536Z,0.88
2022-08-26T16:26:10.883Z,1.17
2022-08-26T16:28:38.895Z,0.80
2022-08-26T16:31:06.397Z,0.80
2022-08-26T16:33:33.344Z,0.63
2022-08-26T16:36:00.104Z,0.70
2022-08-26T16:38:26.904Z,0.63
2022-08-26T16:40:53.566Z,1.08
2022-08-26T16:43:20.230Z,0.80
2022-08-26T16:45:46.927Z,0.75
2022-08-26T16:48:13.669Z,1.00
2022-08-26T16:50:43.443Z,1.10
2022-08-26T16:55:48.513Z,1.15
2022-08-26T16:58:15.671Z,1.00
2022-08-26T17:00:42.698Z,0.80
2022-08-26T17:03:10.425Z,1.02
2022-08-26T17:05:37.767Z,1.38
2022-08-26T17:08:05.865Z,0.90
2022-08-26T17:10:33.582Z,0.80
2022-08-26T17:13:00.791Z,1.27
2022-08-26T17:15:27.644Z,1.20
2022-08-26T17:17:55.551Z,1.30
2022-08-26T17:20:24.691Z,1.23
2022-08-26T17:22:54.240Z,1.30
2022-08-26T17:25:31.782Z,1.35
2022-08-26T17:27:59.358Z,1.48
2022-08-26T17:30:26.270Z,1.08
2022-08-26T17:32:54.053Z,0.85
2022-08-26T17:35:21.040Z,1.00
2022-08-26T17:37:48.178Z,0.95
2022-08-26T17:40:18.385Z,1.00
2022-08-26T17:42:46.225Z,1.63
2022-08-26T17:45:13.345Z,1.17
2022-08-26T17:47:41.276Z,1.88
2022-08-26T17:50:12.207Z,2.20
2022-08-26T17:52:40.395Z,2.22
2022-08-26T17:55:09.008Z,3.15
2022-08-26T17:57:40.921Z,2.38
2022-08-26T18:00:22.171Z,2.58
2022-08-26T18:02:48.838Z,3.10
2022-08-26T18:05:17.567Z,2.08
2022-08-26T18:07:45.593Z,2.53
2022-08-26T18:10:16.023Z,2.17
2022-08-26T18:12:43.240Z,2.60
2022-08-26T18:15:11.259Z,2.53
2022-08-26T18:17:39.735Z,2.88
2022-08-26T18:20:13.007Z,3.28
2022-08-26T18:22:40.276Z,2.88
2022-08-26T18:25:08.482Z,2.75
2022-08-26T18:27:36.406Z,3.13
2022-08-26T18:30:06.822Z,3.25
2022-08-26T18:32:33.571Z,3.10
2022-08-26T18:35:00.335Z,3.65
2022-08-26T18:37:29.579Z,3.35
2022-08-26T18:39:59.636Z,3.65
2022-08-26T18:42:26.934Z,2.90
2022-08-26T18:44:54.265Z,3.30
2022-08-26T18:47:21.228Z,2.75
2022-08-26T18:49:49.015Z,4.57
2022-08-26T18:52:16.162Z,3.85
2022-08-26T18:54:43.394Z,3.97
2022-08-26T18:57:10.782Z,4.47
2022-08-26T18:59:37.734Z,3.92
2022-08-26T19:02:04.895Z,4.03
2022-08-26T19:04:31.911Z,3.78
2022-08-26T19:06:58.818Z,5.78
2022-08-26T19:09:28.588Z,4.10
2022-08-26T19:14:28.054Z,4.25
2022-08-26T19:16:55.430Z,3.58
2022-08-26T19:19:24.228Z,3.50
2022-08-26T19:21:51.813Z,3.47
2022-08-26T19:24:19.639Z,3.75
2022-08-26T19:26:49.627Z,4.15
2022-08-26T19:29:19.248Z,4.22
2022-08-26T19:31:46.415Z,4.60
2022-08-26T19:34:15.238Z,5.20
2022-08-26T19:36:46.684Z,4.85
2022-08-26T19:39:13.881Z,4.60
2022-08-26T19:41:41.294Z,4.63
2022-08-26T19:44:34.868Z,5.38
2022-08-26T19:47:03.790Z,4.20
2022-08-26T19:49:31.512Z,4.38
2022-08-26T19:51:58.378Z,4.68
2022-08-26T19:54:25.737Z,3.95
2022-08-26T19:56:52.392Z,4.90
2022-08-26T19:59:19.154Z,4.75
2022-08-26T20:01:46.007Z,4.75
2022-08-26T20:04:27.916Z,4.63
2022-08-26T20:06:57.732Z,7.00
2022-08-26T20:09:27.481Z,4.22
2022-08-26T20:11:56.919Z,5.70
2022-08-26T20:14:24.526Z,5.15
2022-08-26T20:16:51.465Z,4.30
2022-08-26T20:19:37.688Z,3.80
2022-08-26T20:22:05.534Z,3.63
2022-08-26T20:24:33.297Z,3.03
2022-08-26T20:27:03.252Z,2.75
2022-08-26T20:29:32.666Z,2.60
2022-08-26T20:31:59.543Z,2.35
2022-08-26T20:34:26.675Z,2.40
2022-08-26T20:36:53.500Z,3.40
2022-08-26T20:39:21.156Z,2.42
2022-08-26T20:41:48.888Z,2.65
2022-08-26T20:44:16.757Z,2.70
2022-08-26T20:46:44.150Z,3.20
2022-08-26T20:49:11.605Z,3.05
2022-08-26T20:51:38.642Z,2.90
2022-08-26T20:54:06.451Z,3.30
2022-08-26T20:56:33.224Z,3.20
2022-08-26T20:59:00.877Z,5.63
2022-08-26T21:01:34.646Z,3.65
2022-08-26T21:04:08.667Z,3.80
2022-08-26T21:06:35.946Z,3.25
2022-08-26T21:09:05.331Z,3.45
2022-08-26T21:11:32.571Z,3.00
2022-08-26T21:14:07.166Z,3.08
2022-08-26T21:16:44.347Z,2.85
2022-08-26T21:19:13.037Z,2.72
2022-08-26T21:21:40.828Z,2.10
2022-08-26T21:24:08.118Z,2.00
2022-08-26T21:26:35.347Z,2.30
2022-08-26T21:29:02.974Z,2.42
2022-08-26T21:31:31.982Z,2.30
2022-08-26T21:34:00.095Z,1.85
2022-08-26T21:36:27.203Z,1.90
2022-08-26T21:38:57.216Z,2.28
2022-08-26T21:41:25.137Z,2.47
2022-08-26T21:43:55.903Z,2.33
2022-08-26T21:46:24.165Z,2.88
2022-08-26T21:48:55.632Z,2.47
2022-08-26T21:51:24.754Z,2.30
2022-08-26T21:53:54.984Z,2.70
2022-08-26T21:56:23.850Z,2.83
2022-08-26T21:58:52.454Z,3.13
2022-08-26T22:01:22.100Z,2.72
2022-08-26T22:03:50.187Z,2.92
2022-08-26T22:06:19.146Z,1.77
2022-08-26T22:08:46.119Z,1.58
2022-08-26T22:11:13.772Z,1.98
2022-08-26T22:13:42.202Z,1.38
2022-08-26T22:16:10.025Z,1.40
2022-08-26T22:18:37.514Z,1.90
2022-08-26T22:21:08.565Z,3.28
2022-08-26T22:23:36.792Z,2.88
2022-08-26T22:26:04.920Z,2.20
2022-08-26T22:28:32.072Z,1.83
2022-08-26T22:31:17.906Z,2.22
2022-08-26T22:33:45.381Z,1.85
2022-08-26T22:36:21.095Z,2.22
2022-08-26T22:38:48.609Z,2.10
2022-08-26T22:41:17.907Z,2.50
2022-08-26T22:43:45.907Z,2.25
2022-08-26T22:46:24.681Z,2.08
2022-08-26T22:48:54.439Z,2.28
2022-08-26T22:51:22.373Z,2.55
2022-08-26T22:53:49.675Z,2.10
2022-08-26T22:56:19.479Z,2.25
2022-08-26T22:58:46.244Z,2.65
2022-08-26T23:01:13.766Z,2.53
2022-08-26T23:03:40.724Z,2.60
2022-08-26T23:06:11.752Z,3.08
2022-08-26T23:08:39.578Z,3.90
2022-08-26T23:11:13.070Z,3.53
2022-08-26T23:13:40.464Z,3.05
2022-08-26T23:16:09.669Z,2.80
2022-08-26T23:18:36.896Z,2.65
2022-08-26T23:21:03.963Z,2.78
2022-08-26T23:23:31.185Z,1.45
2022-08-26T23:25:58.611Z,1.70
2022-08-26T23:28:26.546Z,1.90
2022-08-26T23:30:54.267Z,1.60
2022-08-26T23:33:21.189Z,2.17
2022-08-26T23:35:48.322Z,2.40
2022-08-26T23:38:16.101Z,2.63
2022-08-26T23:40:43.054Z,1.67
2022-08-26T23:43:11.747Z,1.60
2022-08-26T23:45:38.651Z,2.20
2022-08-26T23:48:06.530Z,2.70
2022-08-26T23:50:51.749Z,2.00
2022-08-26T23:53:21.841Z,2.15
2022-08-26T23:55:51.299Z,2.50
2022-08-26T23:58:19.630Z,2.20
